Time;durP1;ratioP1;P1;durP2;ratioP2;P2;SDS_P1;SDS_P2;PMS_P1;PMS_P2;Temp;Humidity;BMP_temperature;BMP_pressure;BME280_temperature;BME280_humidity;BME280_pressure;Samples;Min_cycle;Max_cycle;Signal;HPM_P1;HPM_P2
2023/07/07 00:00:37;;;;;;;7.70;4.78;;;;;;;15.11;85.91;101168.81;4961772;28;20130;-80
2023/07/07 00:03:06;;;;;;;7.50;4.60;;;;;;;15.10;86.40;101164.53;4963019;28;20047;-80
2023/07/07 00:05:33;;;;;;;6.93;4.32;;;;;;;15.09;86.36;101160.25;4959221;29;20254;-80
2023/07/07 00:07:59;;;;;;;8.40;4.43;;;;;;;15.18;86.37;101175.84;4962996;28;20090;-79
2023/07/07 00:10:26;;;;;;;5.72;4.15;;;;;;;15.09;86.44;101173.44;4961666;29;20058;-81
2023/07/07 00:12:53;;;;;;;8.35;4.80;;;;;;;14.98;87.20;101174.63;4960694;28;20082;-80
2023/07/07 00:15:19;;;;;;;8.00;4.68;;;;;;;14.99;87.08;101168.38;4959724;28;20139;-80
2023/07/07 00:17:47;;;;;;;9.20;5.25;;;;;;;14.88;86.54;101164.28;4958197;29;20134;-80
2023/07/07 00:20:15;;;;;;;9.05;5.05;;;;;;;14.71;86.82;101173.25;4960988;28;20051;-80
2023/07/07 00:22:43;;;;;;;8.00;4.75;;;;;;;14.58;87.48;101179.06;4961306;28;20059;-80
2023/07/07 00:25:10;;;;;;;8.15;4.72;;;;;;;14.69;87.64;101177.03;4957790;29;20052;-79
2023/07/07 00:27:37;;;;;;;10.85;5.20;;;;;;;14.58;88.24;101167.69;4961638;28;20103;-80
2023/07/07 00:30:04;;;;;;;9.95;4.82;;;;;;;14.55;88.42;101178.56;4961138;28;20175;-80
2023/07/07 00:32:32;;;;;;;8.02;4.93;;;;;;;14.47;88.68;101178.59;4956332;28;20079;-81
2023/07/07 00:34:58;;;;;;;7.28;4.45;;;;;;;14.42;88.74;101179.09;4963211;28;20122;-79
2023/07/07 00:37:26;;;;;;;6.68;4.38;;;;;;;14.43;88.51;101172.84;4967826;29;20093;-81
2023/07/07 00:39:53;;;;;;;7.25;4.60;;;;;;;14.42;88.42;101173.81;4975393;28;20043;-80
2023/07/07 00:42:19;;;;;;;8.98;4.95;;;;;;;14.45;88.51;101177.94;4975944;28;20071;-79
2023/07/07 00:45:17;;;;;;;8.60;5.00;;;;;;;14.50;88.64;101180.88;4973676;28;20075;-79
2023/07/07 00:47:53;;;;;;;8.85;5.47;;;;;;;14.46;88.77;101179.56;4915965;29;20080;-79
2023/07/07 00:50:23;;;;;;;7.78;4.78;;;;;;;14.39;88.43;101175.94;4952716;28;20047;-78
2023/07/07 00:52:51;;;;;;;10.00;4.68;;;;;;;14.47;88.49;101186.47;4962655;28;20130;-78
2023/07/07 00:55:21;;;;;;;6.70;5.18;;;;;;;14.49;88.58;101171.34;4965521;28;20189;-80
2023/07/07 00:57:48;;;;;;;7.68;4.72;;;;;;;14.51;88.67;101182.53;4968348;28;20123;-81
2023/07/07 01:00:21;;;;;;;9.70;4.65;;;;;;;14.47;88.35;101176.78;4960452;28;20138;-80
2023/07/07 01:02:55;;;;;;;7.07;5.18;;;;;;;14.43;87.96;101175.47;4956007;28;20130;-79
2023/07/07 01:05:25;;;;;;;7.78;4.38;;;;;;;14.42;88.01;101176.44;4960034;28;20102;-79
2023/07/07 01:07:53;;;;;;;7.20;5.50;;;;;;;14.39;88.24;101176.75;4961000;28;20590;-81
2023/07/07 01:10:21;;;;;;;10.15;5.40;;;;;;;14.34;88.86;101191.41;4960152;28;20411;-81
2023/07/07 01:12:49;;;;;;;7.72;5.10;;;;;;;14.36;88.99;101189.44;4960460;28;20115;-81
2023/07/07 01:15:16;;;;;;;8.52;5.13;;;;;;;14.33;89.14;101190.59;4960505;29;20130;-81
2023/07/07 01:17:56;;;;;;;8.77;5.43;;;;;;;14.36;89.44;101190.25;4959892;28;20484;-80
2023/07/07 01:20:31;;;;;;;10.65;5.50;;;;;;;14.28;89.63;101193.72;4959964;28;20143;-80
2023/07/07 01:23:28;;;;;;;8.98;5.43;;;;;;;14.22;89.92;101190.91;4960807;28;20515;-79
2023/07/07 01:26:22;;;;;;;12.95;5.63;;;;;;;14.20;90.26;101198.97;4953625;29;20077;-79
2023/07/07 01:29:14;;;;;;;7.28;5.28;;;;;;;14.24;90.13;101189.75;4956073;29;20115;-81
2023/07/07 01:31:45;;;;;;;8.90;5.22;;;;;;;14.23;90.41;101203.91;4954526;28;20047;-80
2023/07/07 01:34:14;;;;;;;10.00;6.03;;;;;;;14.14;90.77;101197.03;4954556;29;20137;-80
2023/07/07 01:36:41;;;;;;;11.55;5.80;;;;;;;14.11;91.13;101200.00;4955042;29;20043;-78
2023/07/07 01:39:10;;;;;;;9.48;5.80;;;;;;;14.09;91.26;101199.34;4958219;28;20515;-80
2023/07/07 01:41:42;;;;;;;10.02;6.00;;;;;;;14.08;91.34;101194.25;4957523;28;20138;-80
2023/07/07 01:44:16;;;;;;;11.02;5.53;;;;;;;14.07;91.03;101184.69;4950144;29;20078;-80
2023/07/07 01:46:47;;;;;;;10.25;5.88;;;;;;;14.04;90.60;101180.59;4954145;28;20547;-79
2023/07/07 01:49:19;;;;;;;10.20;5.57;;;;;;;14.01;90.43;101180.91;4954722;29;20053;-79
2023/07/07 01:51:52;;;;;;;9.52;5.25;;;;;;;13.98;90.16;101183.88;4954721;29;20134;-81
2023/07/07 01:54:20;;;;;;;12.20;6.00;;;;;;;13.88;89.83;101184.03;4958272;28;20047;-80
2023/07/07 01:56:48;;;;;;;9.65;5.78;;;;;;;13.91;89.60;101188.97;4958627;28;20133;-84
2023/07/07 01:59:15;;;;;;;12.85;5.80;;;;;;;13.88;89.90;101185.84;4959595;28;20508;-79
2023/07/07 02:01:44;;;;;;;12.82;6.05;;;;;;;13.85;89.75;101186.16;4957364;28;20160;-80
2023/07/07 02:04:11;;;;;;;12.85;6.95;;;;;;;13.85;90.10;101188.78;4954732;29;20110;-80
2023/07/07 02:06:38;;;;;;;9.88;5.53;;;;;;;13.78;89.75;101185.16;4959036;28;20094;-82
2023/07/07 02:09:04;;;;;;;11.07;5.70;;;;;;;13.73;89.84;101192.72;4959400;28;20584;-81
2023/07/07 02:11:31;;;;;;;12.80;6.63;;;;;;;13.66;90.14;101186.50;4952754;28;20543;-79
2023/07/07 02:13:58;;;;;;;11.20;6.10;;;;;;;13.63;90.49;101192.91;4956339;28;20055;-79
2023/07/07 02:16:24;;;;;;;11.45;6.22;;;;;;;13.55;90.78;101185.00;4952892;29;20134;-79
2023/07/07 02:18:52;;;;;;;17.13;6.82;;;;;;;13.51;91.25;101205.53;4956664;28;20058;-79
2023/07/07 02:21:20;;;;;;;13.35;6.55;;;;;;;13.41;91.95;101194.31;4957179;28;20137;-78
2023/07/07 02:23:46;;;;;;;13.30;6.40;;;;;;;13.43;92.15;101196.78;4956390;28;20078;-79
2023/07/07 02:26:14;;;;;;;11.27;6.43;;;;;;;13.49;92.15;101189.09;4956330;28;20126;-78
2023/07/07 02:28:41;;;;;;;9.65;6.25;;;;;;;13.58;92.48;101190.75;4956709;28;20074;-79
2023/07/07 02:31:11;;;;;;;13.10;6.68;;;;;;;13.59;92.71;101191.56;4949318;29;20049;-79
2023/07/07 02:33:38;;;;;;;10.30;6.30;;;;;;;13.66;92.53;101195.22;4956802;28;20141;-79
2023/07/07 02:36:08;;;;;;;12.68;6.43;;;;;;;13.65;92.46;101187.47;4956503;28;20412;-78
2023/07/07 02:38:36;;;;;;;10.63;6.43;;;;;;;13.59;92.58;101187.13;4956656;28;20047;-79
2023/07/07 02:41:03;;;;;;;10.63;6.45;;;;;;;13.62;92.45;101196.50;4957288;28;20093;-79
2023/07/07 02:43:30;;;;;;;12.75;6.40;;;;;;;13.63;92.34;101200.78;4957393;28;20142;-78
2023/07/07 02:45:57;;;;;;;9.40;6.85;;;;;;;13.61;92.55;101198.31;4955823;28;20106;-78
2023/07/07 02:48:24;;;;;;;10.95;6.63;;;;;;;13.55;92.65;101198.97;4955588;28;20138;-79
2023/07/07 02:50:58;;;;;;;8.48;6.22;;;;;;;13.48;92.92;101197.97;4954751;28;20043;-78
2023/07/07 02:53:29;;;;;;;11.65;6.68;;;;;;;13.44;93.12;101199.25;4956763;28;20086;-79
2023/07/07 02:55:56;;;;;;;11.00;6.95;;;;;;;13.36;92.82;101196.59;4954724;28;20051;-80
2023/07/07 02:58:23;;;;;;;11.40;6.13;;;;;;;13.41;92.90;101207.47;4954210;28;20153;-78
2023/07/07 03:00:51;;;;;;;8.23;5.90;;;;;;;13.31;92.38;101201.50;4952526;29;20138;-78
2023/07/07 03:03:19;;;;;;;13.43;6.30;;;;;;;13.23;92.32;101198.88;4955057;28;20094;-79
2023/07/07 03:05:46;;;;;;;10.00;6.53;;;;;;;13.11;92.87;101200.13;4954613;28;20166;-78
2023/07/07 03:08:13;;;;;;;11.40;6.00;;;;;;;13.05;93.43;101219.16;4954180;28;20059;-77
2023/07/07 03:10:42;;;;;;;9.50;6.10;;;;;;;13.00;93.90;101221.41;4954171;29;20146;-79
2023/07/07 03:13:09;;;;;;;14.68;6.43;;;;;;;12.96;93.98;101220.91;4949887;29;20054;-78
2023/07/07 03:15:39;;;;;;;10.30;6.38;;;;;;;12.99;94.01;101225.03;4953531;28;20047;-79
2023/07/07 03:18:08;;;;;;;10.95;6.63;;;;;;;13.01;94.08;101212.56;4954352;29;20047;-79
2023/07/07 03:20:35;;;;;;;13.40;6.88;;;;;;;12.98;94.27;101212.88;4953883;28;20062;-78
2023/07/07 03:23:02;;;;;;;11.98;6.38;;;;;;;12.96;94.55;101216.47;4955028;28;20126;-79
2023/07/07 03:25:29;;;;;;;11.23;6.30;;;;;;;12.94;94.72;101207.09;4961294;28;20077;-81
2023/07/07 03:27:58;;;;;;;12.85;6.03;;;;;;;12.89;94.81;101225.13;4962961;28;20078;-79
2023/07/07 03:30:26;;;;;;;11.55;6.60;;;;;;;12.85;95.09;101224.63;4962045;28;20551;-79
2023/07/07 03:32:53;;;;;;;12.60;6.22;;;;;;;12.79;95.07;101230.50;4961403;29;20090;-79
2023/07/07 03:35:20;;;;;;;9.63;6.40;;;;;;;12.84;95.34;101233.47;4962931;28;20090;-80
2023/07/07 03:37:46;;;;;;;10.35;6.25;;;;;;;12.92;95.53;101230.91;4963365;28;20090;-79
2023/07/07 03:40:13;;;;;;;12.65;6.20;;;;;;;12.99;95.14;101236.34;4963645;28;20062;-80
2023/07/07 03:42:40;;;;;;;10.75;6.50;;;;;;;12.98;95.34;101241.75;4958017;28;20051;-79
2023/07/07 03:45:08;;;;;;;11.40;6.32;;;;;;;12.99;95.27;101243.41;4953028;28;20138;-78
2023/07/07 03:47:38;;;;;;;12.32;6.68;;;;;;;13.01;95.62;101238.81;4950565;29;20572;-81
2023/07/07 03:50:06;;;;;;;9.30;6.03;;;;;;;13.04;95.46;101234.09;4956096;29;20201;-80
2023/07/07 03:52:32;;;;;;;13.50;6.32;;;;;;;13.09;95.34;101238.88;4956626;28;20436;-80
2023/07/07 03:55:02;;;;;;;10.50;6.43;;;;;;;13.13;95.32;101235.78;4954284;28;20107;-80
2023/07/07 03:57:29;;;;;;;10.98;6.75;;;;;;;13.20;94.97;101233.38;4952954;29;20051;-80
2023/07/07 03:59:55;;;;;;;11.13;6.70;;;;;;;13.25;94.79;101225.81;4956497;28;20053;-80
2023/07/07 04:02:24;;;;;;;8.82;6.60;;;;;;;13.35;94.54;101234.38;4957170;28;20188;-79
2023/07/07 04:04:51;;;;;;;11.93;6.80;;;;;;;13.43;94.44;101244.09;4958449;28;20058;-81
2023/07/07 04:07:20;;;;;;;10.07;6.13;;;;;;;13.77;94.04;101251.91;4955980;28;20102;-80
2023/07/07 04:09:47;;;;;;;9.05;5.90;;;;;;;14.49;91.68;101250.34;4957010;28;20055;-80
2023/07/07 04:12:14;;;;;;;8.07;5.85;;;;;;;15.20;88.26;101236.28;4980718;23;20062;-76
2023/07/07 04:14:40;;;;;;;9.45;5.47;;;;;;;16.11;84.91;101230.31;4959864;28;20061;-80
2023/07/07 04:17:07;;;;;;;9.88;5.90;;;;;;;16.82;81.49;101219.25;4960696;29;20059;-80
2023/07/07 04:19:35;;;;;;;7.90;5.55;;;;;;;17.54;78.85;101223.78;4954301;28;20115;-81
2023/07/07 04:22:02;;;;;;;9.13;5.72;;;;;;;17.82;77.12;101218.63;4962757;29;20047;-80
2023/07/07 04:24:36;;;;;;;8.38;5.07;;;;;;;17.27;76.42;101201.53;4961296;29;20051;-77
2023/07/07 04:27:51;;;;;;;10.70;5.80;;;;;;;16.89;78.62;101224.66;4958685;29;20515;-80
2023/07/07 05:14:17;;;;;;;9.32;4.90;;;;;;;16.49;79.30;101213.47;4967079;23;20110;-85
2023/07/07 05:16:44;;;;;;;6.80;5.05;;;;;;;16.47;79.51;101189.06;4959488;28;20043;-85
2023/07/07 05:19:11;;;;;;;9.48;4.55;;;;;;;17.07;78.62;101217.13;4960418;29;20062;-84
2023/07/07 05:21:37;;;;;;;8.95;4.88;;;;;;;16.68;78.93;101191.00;4959326;28;20055;-85
2023/07/07 05:24:05;;;;;;;9.38;4.90;;;;;;;17.21;78.79;101218.13;4959997;28;20195;-85
2023/07/07 05:26:32;;;;;;;8.25;4.50;;;;;;;17.81;77.23;101214.34;4959703;28;20138;-85
2023/07/07 05:43:06;;;;;;;7.63;4.20;;;;;;;23.29;61.39;101227.69;4891996;29;20501;-79
2023/07/07 05:48:02;;;;;;;6.53;4.10;;;;;;;23.93;60.45;101250.25;4955386;29;20043;-80
2023/07/07 05:50:31;;;;;;;6.28;4.18;;;;;;;22.42;61.86;101242.19;4958617;28;20070;-80
2023/07/07 05:52:58;;;;;;;6.82;4.22;;;;;;;21.94;64.02;101242.75;4959959;28;20066;-80
2023/07/07 05:55:28;;;;;;;7.35;4.25;;;;;;;22.93;61.73;101241.88;4957217;28;20063;-80
2023/07/07 05:57:54;;;;;;;5.07;3.95;;;;;;;22.98;60.46;101238.56;4941539;29;20048;-80
2023/07/07 06:00:21;;;;;;;7.53;4.40;;;;;;;22.75;61.20;101237.31;4941575;29;20128;-80
2023/07/07 06:02:48;;;;;;;5.40;4.35;;;;;;;22.08;61.85;101231.00;4945582;29;20056;-79
2023/07/07 06:05:16;;;;;;;5.32;4.05;;;;;;;22.47;60.79;101227.16;4943474;29;20086;-79
2023/07/07 06:07:43;;;;;;;6.00;4.38;;;;;;;23.57;60.04;101237.00;4941808;29;20062;-79
2023/07/07 06:10:12;;;;;;;6.03;4.20;;;;;;;24.97;56.38;101237.16;4941441;29;20227;-83
2023/07/07 06:12:39;;;;;;;5.53;4.20;;;;;;;24.68;56.60;101238.91;4943762;29;20417;-80
2023/07/07 06:15:07;;;;;;;4.97;3.72;;;;;;;25.72;54.68;101239.66;4942068;29;20107;-79
2023/07/07 06:17:34;;;;;;;7.72;4.63;;;;;;;26.03;53.57;101216.84;4938287;29;20135;-79
2023/07/07 06:20:00;;;;;;;5.32;3.88;;;;;;;27.05;52.38;101221.81;4939389;29;20063;-81
2023/07/07 06:22:28;;;;;;;6.65;3.85;;;;;;;26.99;51.08;101225.50;4939144;29;20058;-79
2023/07/07 06:24:55;;;;;;;5.40;3.65;;;;;;;27.24;50.25;101231.16;4939522;29;20543;-80
2023/07/07 06:27:22;;;;;;;6.07;4.22;;;;;;;25.96;52.12;101225.09;4939163;29;20058;-80
2023/07/07 06:29:49;;;;;;;6.60;4.20;;;;;;;26.64;50.84;101220.47;4938358;29;20134;-80
2023/07/07 06:32:15;;;;;;;4.85;3.72;;;;;;;26.57;51.62;101220.63;4937226;29;20131;-80
2023/07/07 06:34:42;;;;;;;5.65;3.70;;;;;;;25.77;51.47;101205.72;4937911;29;20451;-80
2023/07/07 06:37:08;;;;;;;5.68;3.83;;;;;;;26.70;50.15;101220.28;4932625;29;20143;-81
2023/07/07 06:39:37;;;;;;;5.80;3.60;;;;;;;25.61;50.65;101222.56;4949229;29;20083;-81
2023/07/07 06:42:04;;;;;;;4.20;3.55;;;;;;;25.87;50.48;101201.59;4949169;29;20090;-82
2023/07/07 06:44:32;;;;;;;7.75;3.90;;;;;;;25.06;51.02;101208.94;4949521;29;20051;-82
2023/07/07 06:46:59;;;;;;;4.88;3.50;;;;;;;26.61;49.80;101212.91;4947132;29;20044;-79
2023/07/07 06:49:26;;;;;;;4.93;3.70;;;;;;;27.21;47.70;101201.31;4942486;29;20047;-81
2023/07/07 06:51:52;;;;;;;4.95;3.38;;;;;;;25.98;49.33;101209.56;4949616;29;20075;-82
2023/07/07 06:54:27;;;;;;;6.72;3.72;;;;;;;25.24;50.63;101214.13;4949315;29;20086;-82
2023/07/07 06:57:15;;;;;;;8.20;4.00;;;;;;;26.19;49.44;101215.22;4947770;29;20071;-81
2023/07/07 06:59:47;;;;;;;5.88;3.20;;;;;;;27.07;48.51;101219.69;4942235;29;20512;-81
2023/07/07 07:05:08;;;;;;;6.53;3.50;;;;;;;26.33;48.07;101211.19;4924867;29;20051;-81
2023/07/07 07:07:42;;;;;;;7.22;3.70;;;;;;;27.12;47.49;101198.25;4936797;29;20099;-81
2023/07/07 07:10:29;;;;;;;6.70;3.63;;;;;;;28.63;45.19;101200.56;4940968;29;20051;-82
2023/07/07 07:13:30;;;;;;;5.13;3.53;;;;;;;29.06;45.61;101210.19;4934599;29;20078;-79
2023/07/07 07:16:06;;;;;;;4.85;3.55;;;;;;;29.59;44.30;101201.97;4934385;29;20416;-81
2023/07/07 07:18:39;;;;;;;5.45;3.65;;;;;;;29.42;44.65;101204.09;4939550;29;20048;-81
2023/07/07 07:21:26;;;;;;;4.38;3.63;;;;;;;27.84;44.82;101191.72;4937651;29;20051;-80
2023/07/07 07:23:56;;;;;;;9.38;3.65;;;;;;;27.14;45.85;101188.06;4938862;29;20468;-80
2023/07/07 07:26:22;;;;;;;6.43;3.65;;;;;;;26.87;46.25;101203.31;4938449;29;20485;-79
2023/07/07 07:29:00;;;;;;;4.28;3.28;;;;;;;26.98;46.79;101195.13;4941671;29;20135;-80
2023/07/07 07:31:27;;;;;;;6.05;3.38;;;;;;;28.70;44.58;101194.94;4940787;29;20118;-82
2023/07/07 07:34:20;;;;;;;7.63;3.60;;;;;;;27.85;45.60;101210.28;4940221;29;20058;-81
2023/07/07 07:36:57;;;;;;;5.22;3.28;;;;;;;29.36;44.62;101208.63;4939526;29;20132;-80
2023/07/07 07:39:24;;;;;;;5.10;3.70;;;;;;;28.16;44.61;101184.41;4935687;29;20051;-80
2023/07/07 07:41:57;;;;;;;6.03;3.38;;;;;;;28.34;45.23;101191.28;4940034;29;20054;-79
2023/07/07 07:44:45;;;;;;;7.90;3.50;;;;;;;27.91;45.20;101193.09;4940317;29;20142;-78
2023/07/07 07:47:21;;;;;;;3.97;3.30;;;;;;;29.52;44.21;101187.94;4940412;29;20500;-80
2023/07/07 07:49:55;;;;;;;8.80;3.78;;;;;;;30.25;42.62;101183.03;4944775;29;20051;-80
2023/07/07 07:52:53;;;;;;;6.22;3.40;;;;;;;30.43;42.27;101203.25;4944786;29;20416;-80
2023/07/07 07:55:32;;;;;;;7.40;3.40;;;;;;;27.98;44.61;101182.13;4932754;29;20058;-80
2023/07/07 07:58:03;;;;;;;4.85;3.70;;;;;;;28.26;44.35;101191.75;4941237;29;20062;-79
2023/07/07 08:00:43;;;;;;;7.70;3.50;;;;;;;28.93;43.31;101175.66;4943986;29;20059;-80
2023/07/07 08:12:36;;;;;;;4.75;3.22;;;;;;;28.94;42.24;101189.94;4948127;29;20056;-81
2023/07/07 08:15:14;;;;;;;9.18;3.60;;;;;;;29.63;43.23;101203.84;4903688;29;20052;-79
2023/07/07 08:17:52;;;;;;;6.50;3.55;;;;;;;28.52;42.80;101182.75;4945915;29;20040;-79
2023/07/07 08:20:24;;;;;;;9.57;3.70;;;;;;;28.60;43.68;101193.03;4946716;29;20066;-80
2023/07/07 08:25:41;;;;;;;4.90;3.05;;;;;;;28.31;43.06;101181.03;4947649;29;19982;-81
2023/07/07 08:31:35;;;;;;;5.80;3.53;;;;;;;28.62;42.41;101180.09;4942176;29;20063;-81
2023/07/07 08:34:49;;;;;;;5.10;3.55;;;;;;;29.11;42.06;101182.44;4945814;29;20052;-80
2023/07/07 08:40:44;;;;;;;6.85;3.88;;;;;;;28.58;42.52;101176.31;4937682;29;20047;-81
2023/07/07 08:43:31;;;;;;;;;;;;;;;;;;;;;
2023/07/07 08:46:36;;;;;;;9.93;3.60;;;;;;;30.14;40.77;101192.25;4949052;29;20074;-79
2023/07/07 08:49:30;;;;;;;5.88;3.45;;;;;;;28.71;42.75;101191.19;4947364;29;20055;-80
2023/07/07 08:52:26;;;;;;;9.13;3.83;;;;;;;28.89;43.42;101192.63;4946845;29;20086;-80
2023/07/07 08:55:32;;;;;;;5.28;3.60;;;;;;;29.46;41.18;101187.13;4946141;29;20095;-77
2023/07/07 08:58:19;;;;;;;5.18;4.13;;;;;;;29.60;42.06;101195.50;4938532;29;20063;-79
2023/07/07 09:01:16;;;;;;;9.07;4.40;;;;;;;30.28;41.43;101193.28;4941328;29;20077;-79
2023/07/07 09:04:02;;;;;;;7.00;3.90;;;;;;;28.93;40.60;101161.38;4945894;29;20123;-79
2023/07/07 09:06:57;;;;;;;9.55;4.43;;;;;;;28.78;42.12;101174.78;4940729;29;20051;-79
2023/07/07 09:13:00;;;;;;;7.55;3.95;;;;;;;28.97;42.44;101178.63;4939346;29;20052;-80
2023/07/07 09:15:31;;;;;;;5.72;4.05;;;;;;;29.14;41.45;101160.38;4945063;29;20134;-78
2023/07/07 09:18:20;;;;;;;8.80;4.07;;;;;;;29.92;41.40;101177.13;4943685;29;20051;-80
2023/07/07 09:21:40;;;;;;;7.32;4.10;;;;;;;30.03;40.91;101165.28;4944771;29;20083;-81
2023/07/07 09:24:52;;;;;;;6.40;4.18;;;;;;;29.06;40.85;101156.31;4944139;29;20063;-80
2023/07/07 09:34:32;;;;;;;6.95;3.80;;;;;;;28.62;40.79;101149.69;4943584;29;20058;-81
2023/07/07 09:37:44;;;;;;;4.43;3.53;;;;;;;29.23;40.67;101153.38;4911688;29;20217;-80
2023/07/07 09:40:32;;;;;;;8.77;4.07;;;;;;;29.71;39.42;101151.28;4808616;29;20055;-81
2023/07/07 09:43:11;;;;;;;7.00;3.95;;;;;;;29.16;40.19;101155.53;4811104;29;20065;-81
2023/07/07 09:45:48;;;;;;;5.15;3.90;;;;;;;29.86;37.83;101145.03;4885790;29;20123;-80
2023/07/07 09:48:44;;;;;;;;;;;;;;;;;;;;;
2023/07/07 09:51:33;;;;;;;7.43;3.70;;;;;;;30.19;38.78;101146.38;4939474;29;20054;-81
2023/07/07 09:54:09;;;;;;;5.65;3.40;;;;;;;29.45;38.14;101134.28;4945014;29;20052;-80
2023/07/07 09:56:48;;;;;;;6.13;3.45;;;;;;;29.32;36.58;101138.28;4944323;29;20424;-80
2023/07/07 09:59:24;;;;;;;6.47;3.90;;;;;;;30.15;38.05;101156.09;4943797;29;20194;-80
2023/07/07 10:02:06;;;;;;;6.32;3.90;;;;;;;29.05;37.90;101116.97;4940480;29;20132;-81
2023/07/07 10:04:34;;;;;;;7.35;3.97;;;;;;;28.44;38.73;101140.16;4943274;29;20061;-80
2023/07/07 10:07:07;;;;;;;6.10;3.90;;;;;;;28.46;38.36;101129.94;4940907;29;20059;-80
2023/07/07 10:09:34;;;;;;;8.57;3.97;;;;;;;28.00;39.73;101137.75;4940435;29;20054;-80
2023/07/07 10:12:01;;;;;;;7.07;4.03;;;;;;;28.42;38.97;101128.84;4942160;29;20052;-80
2023/07/07 10:14:30;;;;;;;5.45;4.03;;;;;;;29.15;39.28;101147.69;4941865;29;20131;-80
2023/07/07 10:17:05;;;;;;;8.55;3.95;;;;;;;28.44;38.86;101125.91;4942126;29;20047;-79
2023/07/07 10:19:40;;;;;;;5.50;3.97;;;;;;;29.45;39.34;101144.25;4947773;29;20083;-78
2023/07/07 10:22:08;;;;;;;7.70;4.20;;;;;;;28.87;38.55;101124.72;4954709;29;20048;-79
2023/07/07 10:24:34;;;;;;;6.18;4.05;;;;;;;28.76;39.26;101131.16;4954171;29;20079;-79
2023/07/07 10:27:01;;;;;;;7.35;3.83;;;;;;;28.83;39.07;101118.28;4947665;29;20107;-77
2023/07/07 10:29:36;;;;;;;4.70;3.90;;;;;;;28.44;39.63;101123.22;4949217;29;20051;-79
2023/07/07 10:32:04;;;;;;;5.18;4.10;;;;;;;28.47;39.95;101126.19;4950303;29;20166;-79
2023/07/07 10:34:34;;;;;;;6.65;4.20;;;;;;;28.37;39.39;101105.41;4949549;29;20059;-78
2023/07/07 10:37:02;;;;;;;5.70;3.83;;;;;;;28.97;40.31;101120.19;4949238;29;20051;-78
2023/07/07 10:39:31;;;;;;;6.80;4.38;;;;;;;29.04;37.51;101109.94;4946459;29;20083;-80
2023/07/07 10:41:58;;;;;;;6.78;4.30;;;;;;;29.06;37.67;101107.00;4947823;29;20082;-80
2023/07/07 10:44:25;;;;;;;6.78;3.97;;;;;;;29.57;38.62;101107.03;4947078;29;20313;-81
2023/07/07 10:46:52;;;;;;;7.82;3.95;;;;;;;29.84;38.13;101112.94;4946627;29;20563;-81
2023/07/07 10:49:24;;;;;;;5.43;4.00;;;;;;;29.26;36.57;101100.81;4945168;29;20082;-82
2023/07/07 10:52:03;;;;;;;7.30;4.20;;;;;;;29.93;36.98;101110.47;4947347;29;20055;-81
2023/07/07 10:54:41;;;;;;;8.27;3.92;;;;;;;30.29;37.14;101114.72;4946744;29;20083;-81
2023/07/07 10:57:19;;;;;;;6.47;4.00;;;;;;;30.14;36.76;101116.69;4945128;29;20177;-80
2023/07/07 10:59:59;;;;;;;6.60;4.15;;;;;;;30.16;35.48;101103.72;4944995;29;20072;-81
2023/07/07 11:02:55;;;;;;;6.35;4.28;;;;;;;29.47;35.18;101091.69;4945927;29;20107;-81
2023/07/07 11:05:34;;;;;;;5.28;3.97;;;;;;;29.94;36.99;101117.50;4945005;29;20051;-81
2023/07/07 11:08:16;;;;;;;5.93;4.15;;;;;;;29.66;36.10;101100.84;4944587;29;20487;-80
2023/07/07 11:11:02;;;;;;;4.75;3.78;;;;;;;30.07;36.04;101099.97;4944992;29;20052;-80
2023/07/07 11:13:44;;;;;;;7.00;4.40;;;;;;;29.92;35.75;101098.06;4944579;29;20439;-79
2023/07/07 11:16:19;;;;;;;8.38;4.45;;;;;;;30.44;37.42;101111.16;4944478;29;20055;-80
2023/07/07 11:19:03;;;;;;;6.22;3.90;;;;;;;30.53;36.32;101106.00;4945719;29;20078;-79
2023/07/07 11:21:39;;;;;;;7.63;4.22;;;;;;;30.29;35.05;101101.22;4949812;29;20107;-80
2023/07/07 11:24:14;;;;;;;6.75;3.85;;;;;;;30.64;36.12;101097.59;4950488;29;20059;-82
2023/07/07 11:27:07;;;;;;;7.63;4.32;;;;;;;30.09;35.22;101085.13;4943465;29;20083;-79
2023/07/07 11:29:45;;;;;;;13.45;3.67;;;;;;;30.23;35.11;101079.94;4946810;29;20111;-79
2023/07/07 11:32:24;;;;;;;8.77;4.15;;;;;;;29.19;36.71;101081.41;4941590;29;20079;-81
2023/07/07 11:35:25;;;;;;;5.75;4.00;;;;;;;28.89;36.26;101068.69;4948090;29;20456;-81
2023/07/07 11:38:10;;;;;;;5.78;4.10;;;;;;;28.89;36.17;101068.69;4948045;29;20571;-77
2023/07/07 11:40:58;;;;;;;7.00;4.20;;;;;;;29.30;35.98;101058.78;4949339;29;20048;-81
2023/07/07 11:43:44;;;;;;;6.80;3.88;;;;;;;29.94;36.46;101072.44;4944298;29;20075;-80
2023/07/07 11:46:33;;;;;;;7.80;3.92;;;;;;;29.76;35.77;101053.34;4972894;23;20075;-77
2023/07/07 11:49:15;;;;;;;5.13;4.05;;;;;;;29.05;36.88;101068.47;4955579;29;20134;-79
2023/07/07 11:51:50;;;;;;;6.43;4.18;;;;;;;29.24;37.00;101060.66;4954251;29;20328;-78
2023/07/07 11:54:47;;;;;;;7.07;4.10;;;;;;;29.39;36.38;101063.34;4953064;28;20133;-78
2023/07/07 11:57:27;;;;;;;6.80;4.05;;;;;;;29.46;36.83;101057.72;4952563;29;20162;-77
2023/07/07 12:00:22;;;;;;;6.05;4.15;;;;;;;29.06;37.74;101058.50;4954992;29;20039;-78
2023/07/07 12:02:55;;;;;;;8.50;4.20;;;;;;;29.15;38.05;101056.88;4956785;28;20070;-78
2023/07/07 12:05:28;;;;;;;7.80;4.35;;;;;;;29.48;36.86;101046.66;4956801;28;20070;-78
2023/07/07 12:08:02;;;;;;;7.32;4.47;;;;;;;29.90;36.45;101057.88;4956821;28;20051;-78
2023/07/07 12:10:33;;;;;;;7.30;4.25;;;;;;;29.73;36.48;101052.00;4957004;28;20047;-77
2023/07/07 12:13:04;;;;;;;6.47;4.03;;;;;;;29.30;36.74;101039.91;4957958;28;20494;-78
2023/07/07 12:15:36;;;;;;;7.15;4.38;;;;;;;29.20;37.52;101042.59;4959380;29;20411;-78
2023/07/07 12:18:06;;;;;;;;;;;;;;;29.23;37.00;101042.06;4958276;28;20079;-79
2023/07/07 12:20:38;;;;;;;6.82;4.43;;;;;;;29.52;37.10;101051.22;4957260;29;19922;-78
2023/07/07 12:23:11;;;;;;;5.88;4.05;;;;;;;30.02;36.96;101049.50;4958853;28;20053;-78
2023/07/07 12:25:39;;;;;;;7.03;4.05;;;;;;;30.43;35.32;101044.75;4958577;28;20087;-79
2023/07/07 12:28:06;;;;;;;4.97;3.80;;;;;;;30.01;34.25;101039.81;4958281;28;20054;-79
2023/07/07 12:30:46;;;;;;;6.88;4.28;;;;;;;30.32;33.44;101035.06;4957615;28;20137;-78
2023/07/07 12:33:17;;;;;;;6.50;4.05;;;;;;;30.38;33.93;101042.06;4953903;29;20106;-82
2023/07/07 12:35:48;;;;;;;5.40;3.97;;;;;;;30.45;34.63;101045.28;4964820;29;20039;-81
2023/07/07 12:38:24;;;;;;;6.00;3.95;;;;;;;30.12;34.43;101038.69;4962160;28;20078;-80
2023/07/07 12:40:51;;;;;;;5.10;3.90;;;;;;;30.00;33.63;101030.09;4962309;28;20082;-79
2023/07/07 12:43:27;;;;;;;7.78;4.25;;;;;;;30.50;34.01;101030.94;4962839;28;20082;-82
2023/07/07 12:45:56;;;;;;;7.20;4.47;;;;;;;29.86;34.91;101029.84;4960378;29;20069;-81
2023/07/07 12:48:28;;;;;;;4.78;3.75;;;;;;;29.73;35.08;101024.22;4961004;28;20130;-79
2023/07/07 12:51:00;;;;;;;6.25;4.18;;;;;;;30.20;35.21;101030.03;4961957;28;20175;-80
2023/07/07 12:53:29;;;;;;;7.15;4.13;;;;;;;30.06;35.04;101025.50;4962442;28;20055;-80
2023/07/07 12:56:02;;;;;;;6.95;4.20;;;;;;;29.87;35.74;101019.84;4960726;28;20510;-79
2023/07/07 12:58:48;;;;;;;5.03;4.18;;;;;;;29.46;35.12;101019.16;4962072;28;20051;-80
2023/07/07 13:01:35;;;;;;;6.97;4.35;;;;;;;29.91;35.99;101021.72;4956683;29;20091;-81
2023/07/07 13:04:16;;;;;;;6.50;4.25;;;;;;;30.27;35.99;101027.81;4961612;28;20071;-78
2023/07/07 13:07:02;;;;;;;8.73;4.80;;;;;;;30.66;33.92;101025.19;4963634;28;20097;-81
2023/07/07 13:09:44;;;;;;;5.38;4.20;;;;;;;30.94;33.31;101012.81;4955870;29;20047;-81
2023/07/07 13:12:48;;;;;;;9.07;4.40;;;;;;;30.40;34.24;101017.50;4962639;29;20051;-80
2023/07/07 13:15:20;;;;;;;5.22;4.30;;;;;;;29.87;34.49;101009.88;4953789;29;20051;-80
2023/07/07 13:17:53;;;;;;;6.45;4.32;;;;;;;29.71;35.04;100994.84;4959449;28;20079;-80
2023/07/07 13:20:22;;;;;;;6.25;4.13;;;;;;;30.17;35.35;101010.88;4959074;29;20083;-80
2023/07/07 13:22:53;;;;;;;6.18;3.90;;;;;;;30.17;34.71;101016.28;4959067;28;20066;-80
2023/07/07 13:25:29;;;;;;;12.40;4.70;;;;;;;30.49;35.86;101013.13;4963311;28;20058;-80
2023/07/07 13:27:59;;;;;;;5.32;4.03;;;;;;;30.85;34.24;101008.31;4963678;28;20558;-80
2023/07/07 13:30:31;;;;;;;7.38;4.00;;;;;;;30.88;33.88;101002.34;4968058;28;20125;-81